Time;durP1;ratioP1;P1;durP2;ratioP2;P2;SDS_P1;SDS_P2;PMS_P1;PMS_P2;Temp;Humidity;BMP_temperature;BMP_pressure;BME280_temperature;BME280_humidity;BME280_pressure;Samples;Min_cycle;Max_cycle;Signal;HPM_P1;HPM_P2
2022/02/08 00:04:51;;;;;;;8.15;3.13;;;;;;;3.52;66.03;101386.59;8721862;32;20232;-75
2022/02/08 00:09:54;;;;;;;5.97;3.05;;;;;;;3.42;66.23;101391.34;8724923;32;20206;-75
2022/02/08 00:14:58;;;;;;;9.38;3.55;;;;;;;3.55;66.00;101391.81;8729987;32;20434;-76
2022/02/08 00:20:03;;;;;;;9.18;3.70;;;;;;;3.41;66.39;101389.63;8721802;32;20182;-76
2022/02/08 00:25:08;;;;;;;6.68;3.58;;;;;;;3.56;65.37;101379.38;8721134;32;22046;-75
2022/02/08 00:30:12;;;;;;;13.50;4.55;;;;;;;3.57;65.90;101384.66;8719516;32;20321;-75
2022/02/08 00:35:17;;;;;;;8.38;4.47;;;;;;;3.75;65.80;101376.91;8696122;32;20912;-76
2022/02/08 00:40:21;;;;;;;5.70;4.03;;;;;;;3.42;66.65;101380.72;8719212;32;20238;-76
2022/02/08 00:45:33;;;;;;;9.75;4.88;;;;;;;3.71;66.16;101373.53;8720062;32;20181;-76
2022/02/08 00:50:39;;;;;;;13.05;5.78;;;;;;;3.76;66.44;101374.22;8720167;32;20185;-76
2022/02/08 00:55:44;;;;;;;11.15;5.55;;;;;;;3.52;67.15;101367.16;8719380;32;20537;-76
2022/02/08 01:00:47;;;;;;;10.60;4.53;;;;;;;3.51;67.97;101363.59;8719822;32;20776;-75
2022/02/08 01:06:03;;;;;;;11.63;5.30;;;;;;;3.71;67.47;101353.13;8723562;32;20403;-75
2022/02/08 01:11:10;;;;;;;13.90;6.28;;;;;;;3.87;67.13;101347.25;8716181;32;20248;-75
2022/02/08 01:16:13;;;;;;;11.10;4.63;;;;;;;3.69;68.51;101352.31;8693461;32;20130;-76
2022/02/08 01:21:17;;;;;;;11.18;4.50;;;;;;;3.60;69.02;101347.34;8714385;32;20145;-74
2022/02/08 01:26:21;;;;;;;13.38;4.88;;;;;;;3.86;68.37;101327.75;8714274;32;20467;-75
2022/02/08 01:31:24;;;;;;;13.27;4.78;;;;;;;4.08;68.14;101333.09;8715461;32;20183;-75
2022/02/08 01:36:49;;;;;;;10.13;3.50;;;;;;;3.88;68.98;101338.34;8713958;32;20134;-76
2022/02/08 01:47:27;;;;;;;5.63;3.95;;;;;;;3.52;72.78;101344.09;8721242;32;20169;-75
2022/02/08 01:52:31;;;;;;;6.40;3.95;;;;;;;3.49;75.05;101339.75;8731407;32;20284;-76
2022/02/08 01:57:35;;;;;;;11.75;4.20;;;;;;;3.37;76.59;101339.31;8702846;32;20509;-76
2022/02/08 02:02:40;;;;;;;12.25;5.40;;;;;;;3.56;76.64;101340.38;8709974;32;20149;-75
2022/02/08 02:07:51;;;;;;;6.87;3.50;;;;;;;3.46;77.62;101337.22;8711031;32;20902;-76
2022/02/08 02:13:00;;;;;;;13.15;5.18;;;;;;;3.39;78.08;101325.06;8726138;32;20656;-75
2022/02/08 02:18:09;;;;;;;9.38;5.15;;;;;;;3.25;79.82;101335.31;8701618;32;20189;-74
2022/02/08 02:23:14;;;;;;;12.82;5.72;;;;;;;3.19;80.97;101311.66;8700623;32;20221;-77
2022/02/08 02:28:19;;;;;;;19.35;7.80;;;;;;;3.32;82.09;101298.78;8701084;32;20458;-77
2022/02/08 02:33:23;;;;;;;10.60;6.30;;;;;;;3.27;83.84;101313.09;8725245;32;20917;-75
2022/02/08 02:38:26;;;;;;;15.32;9.35;;;;;;;3.48;83.96;101307.91;8699786;32;20393;-74
2022/02/08 02:43:32;;;;;;;23.20;10.32;;;;;;;3.32;85.50;101306.75;8719122;32;21019;-76
2022/02/08 02:48:35;;;;;;;18.05;10.13;;;;;;;3.30;85.82;101301.50;8704935;32;20410;-75
2022/02/08 02:53:39;;;;;;;18.70;10.00;;;;;;;2.95;87.36;101300.94;8733040;32;20189;-76
2022/02/08 02:58:51;;;;;;;16.05;9.95;;;;;;;3.20;87.46;101305.41;8740530;32;20472;-75
2022/02/08 03:04:07;;;;;;;29.70;11.70;;;;;;;3.32;87.59;101304.09;8729167;32;21471;-76
2022/02/08 03:20:01;;;;;;;18.70;10.90;;;;;;;3.36;87.79;101293.31;8695938;32;20173;-76
2022/02/08 03:25:06;;;;;;;31.88;14.13;;;;;;;3.86;86.09;101294.97;8697251;32;20601;-76
2022/02/08 03:30:11;;;;;;;20.67;10.85;;;;;;;3.56;86.96;101294.34;8722515;32;20408;-76
2022/02/08 03:35:16;;;;;;;17.20;10.57;;;;;;;3.33;88.27;101304.03;8700634;32;20130;-76
2022/02/08 03:40:37;;;;;;;27.55;11.85;;;;;;;3.33;88.68;101292.56;8722517;32;20237;-75
2022/02/08 03:45:51;;;;;;;26.48;11.57;;;;;;;3.26;89.78;101284.81;8696922;32;20567;-76
2022/02/08 03:51:05;;;;;;;23.52;9.88;;;;;;;3.27;90.48;101286.53;8722149;32;20669;-76
2022/02/08 03:56:11;;;;;;;29.73;13.25;;;;;;;3.40;91.22;101286.06;8721556;32;20173;-77
2022/02/08 04:06:33;;;;;;;19.83;11.40;;;;;;;3.42;90.17;101266.50;8699261;32;20505;-77
2022/02/08 04:11:49;;;;;;;20.48;9.93;;;;;;;3.36;90.48;101274.72;8721023;32;21001;-76
2022/02/08 04:16:59;;;;;;;17.88;10.13;;;;;;;3.38;90.04;101278.19;8718582;32;20450;-76
2022/02/08 04:33:02;;;;;;;10.60;5.88;;;;;;;3.36;91.01;101272.06;8721240;32;20506;-76
2022/02/08 04:38:18;;;;;;;6.60;4.25;;;;;;;3.30;91.22;101266.13;8722639;32;20181;-76
2022/02/08 04:43:38;;;;;;;17.42;9.10;;;;;;;3.65;91.03;101267.47;8722075;32;20392;-76
2022/02/08 04:48:52;;;;;;;14.63;7.88;;;;;;;3.47;92.08;101269.88;8722325;32;20557;-75
2022/02/08 04:54:06;;;;;;;12.93;6.38;;;;;;;3.48;92.13;101274.28;8719809;32;20455;-76
2022/02/08 04:59:24;;;;;;;20.90;7.35;;;;;;;3.59;91.55;101281.81;8718417;32;21041;-76
2022/02/08 05:37:17;;;;;;;26.45;13.23;;;;;;;4.01;91.95;101286.44;8721712;32;20471;-76
2022/02/08 05:42:30;;;;;;;28.70;13.80;;;;;;;4.16;92.03;101272.50;8718901;32;20419;-77
2022/02/08 05:47:40;;;;;;;33.92;16.85;;;;;;;4.16;92.23;101251.22;8719963;32;20431;-77
2022/02/08 05:52:51;;;;;;;28.60;14.63;;;;;;;4.07;92.57;101243.63;8721108;32;20178;-77
2022/02/08 05:57:54;;;;;;;28.23;12.40;;;;;;;4.03;92.74;101247.34;8721657;32;20416;-76
2022/02/08 06:03:02;;;;;;;35.47;15.38;;;;;;;4.36;92.35;101257.53;8721247;32;20185;-75
2022/02/08 06:08:14;;;;;;;34.88;17.23;;;;;;;4.61;91.32;101244.94;8721853;32;20389;-77
2022/02/08 06:13:18;;;;;;;37.40;17.83;;;;;;;4.50;91.64;101246.31;8722699;32;20138;-77
2022/02/08 06:18:21;;;;;;;31.25;16.13;;;;;;;4.44;92.36;101263.41;8695656;32;20411;-76
2022/02/08 06:23:27;;;;;;;28.90;14.70;;;;;;;4.37;92.17;101225.56;8718670;32;20142;-77
2022/02/08 06:28:31;;;;;;;24.80;11.98;;;;;;;4.44;92.54;101236.78;8719592;32;20450;-77
2022/02/08 06:33:34;;;;;;;27.25;12.02;;;;;;;4.58;93.17;101234.44;8720338;32;20471;-76
2022/02/08 06:38:39;;;;;;;36.58;16.50;;;;;;;4.65;92.54;101242.16;8721968;32;20462;-77
2022/02/08 06:43:44;;;;;;;39.33;16.38;;;;;;;4.57;93.03;101229.16;8700393;32;20412;-77
2022/02/08 06:48:47;;;;;;;38.50;17.65;;;;;;;4.81;92.54;101238.75;8727991;32;20243;-76
2022/02/08 06:53:51;;;;;;;43.70;21.08;;;;;;;4.72;93.25;101252.47;8725603;32;20146;-76
2022/02/08 06:59:03;;;;;;;29.63;12.75;;;;;;;4.66;93.98;101259.84;8722055;32;20538;-76
2022/02/08 07:04:08;;;;;;;42.35;14.40;;;;;;;4.96;92.41;101229.22;8717688;32;20716;-77
2022/02/08 07:09:15;;;;;;;41.83;19.05;;;;;;;4.79;92.76;101239.75;8720356;32;20445;-75
2022/02/08 07:14:18;;;;;;;45.25;18.95;;;;;;;5.04;92.35;101263.53;8701472;32;20126;-77
2022/02/08 07:19:21;;;;;;;40.53;19.00;;;;;;;5.21;91.31;101266.34;8719816;32;20130;-75
2022/02/08 07:24:25;;;;;;;34.70;16.10;;;;;;;5.20;91.39;101267.25;8714530;32;20407;-76
2022/02/08 07:29:29;;;;;;;36.67;17.85;;;;;;;5.24;91.87;101268.00;8712939;32;20272;-77
2022/02/08 07:34:39;;;;;;;41.22;18.58;;;;;;;5.18;92.15;101278.91;8720911;32;20163;-77
2022/02/08 07:39:47;;;;;;;36.67;17.60;;;;;;;5.45;90.50;101275.00;8723863;32;20169;-77
2022/02/08 07:44:50;;;;;;;39.58;16.70;;;;;;;5.51;90.74;101284.53;8715107;32;20374;-77
2022/02/08 07:49:57;;;;;;;29.02;15.07;;;;;;;5.32;90.59;101265.88;8694092;32;20451;-75
2022/02/08 07:55:02;;;;;;;35.22;16.73;;;;;;;5.63;89.88;101275.13;8723598;32;21209;-76
2022/02/08 08:00:07;;;;;;;40.03;17.58;;;;;;;5.78;89.58;101270.84;8722456;32;20171;-77
2022/02/08 08:05:15;;;;;;;27.00;14.48;;;;;;;5.71;89.30;101276.50;8673916;33;20597;-77
2022/02/08 08:10:22;;;;;;;23.23;10.35;;;;;;;5.78;88.93;101255.72;8652918;33;20212;-76
2022/02/08 08:15:36;;;;;;;23.00;10.50;;;;;;;5.90;88.12;101259.63;8672893;33;20576;-77
2022/02/08 08:20:39;;;;;;;29.20;10.95;;;;;;;5.94;88.12;101275.41;8665609;33;20193;-76
2022/02/08 08:25:43;;;;;;;25.80;12.57;;;;;;;5.94;88.32;101259.38;8666517;33;20142;-76
2022/02/08 08:30:46;;;;;;;20.13;11.02;;;;;;;6.01;87.85;101272.47;8695738;32;20434;-77
2022/02/08 08:35:50;;;;;;;26.20;12.48;;;;;;;6.18;86.67;101272.50;8717283;32;20435;-77
2022/02/08 08:41:01;;;;;;;25.48;12.70;;;;;;;6.25;86.85;101265.03;8726927;32;20498;-77
2022/02/08 08:51:33;;;;;;;20.98;10.23;;;;;;;6.30;86.75;101265.69;8716231;32;20920;-77
2022/02/08 08:56:39;;;;;;;23.65;12.13;;;;;;;6.25;86.80;101279.25;8714753;32;20424;-77
2022/02/08 09:01:43;;;;;;;21.35;9.63;;;;;;;6.04;87.68;101281.16;8712278;32;20403;-76
2022/02/08 09:06:50;;;;;;;21.00;12.00;;;;;;;6.44;85.38;101287.22;8713022;32;20444;-77
2022/02/08 09:12:10;;;;;;;13.95;7.80;;;;;;;6.21;86.27;101279.50;8688859;32;20142;-76
2022/02/08 09:23:00;;;;;;;17.15;9.07;;;;;;;6.46;85.77;101287.16;8655245;32;21762;-76
2022/02/08 09:28:19;;;;;;;12.02;6.88;;;;;;;6.34;85.71;101293.97;8706744;32;20142;-76
2022/02/08 09:33:22;;;;;;;16.92;8.35;;;;;;;6.53;84.90;101294.78;8709047;32;20421;-77
2022/02/08 09:38:29;;;;;;;11.93;7.03;;;;;;;6.52;84.97;101285.03;8713127;32;20452;-77
2022/02/08 09:43:34;;;;;;;19.25;7.60;;;;;;;6.52;85.13;101271.69;8723820;32;20285;-77
2022/02/08 09:48:44;;;;;;;10.90;5.63;;;;;;;6.55;85.04;101300.03;8734827;32;20181;-77
2022/02/08 09:53:47;;;;;;;19.20;8.98;;;;;;;6.87;83.72;101290.44;8728947;32;20177;-77
2022/02/08 09:58:52;;;;;;;18.75;9.00;;;;;;;6.91;83.11;101294.69;8727873;32;20173;-77
2022/02/08 10:03:57;;;;;;;19.60;9.38;;;;;;;7.05;82.93;101304.69;8717208;32;20150;-77
2022/02/08 10:09:02;;;;;;;17.35;9.40;;;;;;;7.06;83.03;101314.41;8715356;32;20556;-77
2022/02/08 10:14:18;;;;;;;16.17;8.57;;;;;;;6.82;83.58;101308.47;8717138;32;20207;-77
2022/02/08 10:24:49;;;;;;;11.13;6.72;;;;;;;6.88;83.08;101280.63;8725145;32;20458;-76
2022/02/08 10:30:13;;;;;;;16.20;8.52;;;;;;;7.10;82.82;101299.06;8714842;32;20500;-75
2022/02/08 10:40:39;;;;;;;16.80;8.88;;;;;;;7.39;82.14;101292.22;8723399;32;20446;-79
2022/02/08 10:45:44;;;;;;;20.67;10.65;;;;;;;7.32;81.97;101317.53;8725223;32;20441;-77
2022/02/08 10:50:52;;;;;;;17.10;7.75;;;;;;;7.24;82.13;101318.81;8725070;32;20178;-76
2022/02/08 10:56:01;;;;;;;14.90;7.90;;;;;;;7.10;82.81;101291.91;8725613;32;20489;-76
2022/02/08 11:01:10;;;;;;;15.18;9.43;;;;;;;7.40;81.67;101297.44;8723841;32;20452;-77
2022/02/08 11:06:22;;;;;;;16.55;7.45;;;;;;;7.30;81.85;101298.06;8725858;32;20488;-76
2022/02/08 11:11:39;;;;;;;16.17;9.00;;;;;;;7.19;82.00;101291.47;8724751;32;20472;-76
2022/02/08 11:17:36;;;;;;;20.85;10.15;;;;;;;7.54;80.82;101298.53;8724767;32;20465;-77
2022/02/08 11:22:50;;;;;;;15.45;7.82;;;;;;;7.39;81.57;101310.91;8732559;32;20527;-77
2022/02/08 11:28:05;;;;;;;12.88;7.25;;;;;;;7.51;81.14;101304.91;8713123;32;20407;-77
2022/02/08 11:33:39;;;;;;;17.92;8.68;;;;;;;7.32;82.05;101293.47;8712000;32;20398;-76
2022/02/08 11:39:22;;;;;;;16.10;8.75;;;;;;;7.39;81.59;101302.91;8712688;32;20444;-76
2022/02/08 11:50:24;;;;;;;16.45;8.23;;;;;;;7.35;81.88;101285.28;8704498;32;20219;-77
2022/02/08 12:01:00;;;;;;;15.77;9.30;;;;;;;7.49;82.21;101272.06;8656590;32;21246;-77
2022/02/08 12:06:42;;;;;;;19.33;10.82;;;;;;;7.60;81.52;101269.66;8714296;32;20429;-76
2022/02/08 12:12:26;;;;;;;14.48;7.65;;;;;;;7.81;80.37;101280.13;8713793;32;20402;-77
2022/02/08 12:29:20;;;;;;;14.00;8.45;;;;;;;8.04;79.94;101262.81;8712689;32;20491;-75
2022/02/08 12:34:27;;;;;;;18.40;10.27;;;;;;;8.06;79.40;101277.78;8718197;32;20196;-77
2022/02/08 12:56:35;;;;;;;17.80;10.30;;;;;;;8.14;79.13;101288.94;8712156;32;20396;-76
2022/02/08 13:02:14;;;;;;;19.05;10.32;;;;;;;8.08;78.67;101285.75;8713907;32;20404;-76
2022/02/08 14:06:44;;;;;;;16.75;9.93;;;;;;;7.95;80.36;101277.53;8720779;32;20945;-77
2022/02/08 14:17:38;;;;;;;20.80;10.73;;;;;;;8.05;80.67;101293.94;8722557;32;20494;-77
2022/02/08 14:22:55;;;;;;;15.55;9.10;;;;;;;8.22;80.29;101290.31;8734495;32;20153;-76
2022/02/08 14:33:36;;;;;;;15.57;9.63;;;;;;;7.99;82.16;101308.53;8735050;32;20185;-75
2022/02/08 15:00:35;;;;;;;20.17;12.32;;;;;;;7.60;86.69;101315.13;8725227;32;20411;-76
2022/02/08 15:05:52;;;;;;;12.52;8.07;;;;;;;7.41;88.15;101315.25;8697801;32;20439;-76
2022/02/08 15:11:04;;;;;;;21.98;10.75;;;;;;;7.55;87.89;101316.31;8721016;32;20483;-76
2022/02/08 15:21:29;;;;;;;14.80;9.23;;;;;;;7.24;89.89;101308.13;8726347;32;21145;-77
2022/02/08 15:26:33;;;;;;;17.58;11.05;;;;;;;7.14;91.36;101314.03;8741908;32;20482;-75
2022/02/08 15:31:36;;;;;;;17.48;10.98;;;;;;;7.14;91.76;101320.22;8721321;32;20177;-76
2022/02/08 15:36:40;;;;;;;21.92;11.32;;;;;;;7.02;92.21;101326.19;8717981;32;20145;-75
2022/02/08 15:41:45;;;;;;;25.50;10.48;;;;;;;6.99;92.12;101339.69;8716216;32;20410;-75
2022/02/08 15:46:49;;;;;;;19.52;10.93;;;;;;;6.93;92.90;101337.34;8722697;32;20185;-76
2022/02/08 15:52:00;;;;;;;22.00;13.20;;;;;;;7.10;92.57;101350.69;8720143;32;20194;-76
2022/02/08 15:57:41;;;;;;;19.90;13.85;;;;;;;7.04;92.26;101338.53;8719529;32;20541;-76
2022/02/08 16:08:03;;;;;;;21.83;14.20;;;;;;;6.84;93.93;101336.84;8719391;32;20466;-77
2022/02/08 16:13:21;;;;;;;21.65;12.23;;;;;;;6.82;93.92;101349.41;8658485;33;20605;-77
2022/02/08 16:18:31;;;;;;;16.83;9.90;;;;;;;6.75;93.50;101342.66;8656320;33;20414;-75
2022/02/08 16:24:02;;;;;;;16.23;10.35;;;;;;;6.85;93.61;101332.34;8655648;33;20974;-75
2022/02/08 16:29:22;;;;;;;17.83;10.98;;;;;;;6.65;94.86;101345.84;8650610;33;20192;-75
2022/02/08 16:57:39;;;;;;;17.95;9.93;;;;;;;6.85;93.68;101364.41;8721177;32;20891;-76
2022/02/08 17:02:48;;;;;;;19.50;10.00;;;;;;;7.01;92.71;101375.22;8722513;32;21029;-75
2022/02/08 17:07:51;;;;;;;19.98;10.88;;;;;;;6.64;94.24;101382.38;8721801;32;20417;-76
2022/02/08 17:13:03;;;;;;;19.73;11.65;;;;;;;7.02;93.43;101379.63;8727545;32;21794;-74
2022/02/08 17:18:44;;;;;;;27.48;14.05;;;;;;;7.16;92.57;101384.25;8722377;32;20150;-75
2022/02/08 17:34:53;;;;;;;20.17;11.38;;;;;;;7.00;93.15;101393.06;8723275;32;20273;-76
2022/02/08 17:45:42;;;;;;;22.15;10.90;;;;;;;6.61;94.93;101390.53;8698381;32;20177;-76
2022/02/08 17:50:48;;;;;;;19.52;10.32;;;;;;;6.47;95.67;101382.28;8724724;32;20914;-77
2022/02/08 17:55:52;;;;;;;21.48;12.80;;;;;;;6.83;94.50;101398.34;8721795;32;20404;-78
2022/02/08 18:00:57;;;;;;;25.08;12.38;;;;;;;6.90;94.23;101402.47;8735314;32;20220;-77
2022/02/08 18:06:00;;;;;;;25.92;13.10;;;;;;;6.93;94.19;101407.66;8732451;32;20731;-78
2022/02/08 18:11:03;;;;;;;16.80;9.13;;;;;;;6.53;95.46;101414.91;8736252;32;20184;-77
2022/02/08 18:16:08;;;;;;;20.80;10.65;;;;;;;6.79;94.59;101408.31;8737866;32;20219;-76
2022/02/08 18:21:18;;;;;;;15.73;8.10;;;;;;;6.60;95.27;101408.34;8737405;32;20185;-77
2022/02/08 19:09:24;;;;;;;26.35;13.48;;;;;;;6.69;95.14;101432.84;8724781;32;20217;-76
2022/02/08 19:15:11;;;;;;;26.17;12.60;;;;;;;6.88;93.28;101432.88;8723499;32;20176;-76
2022/02/08 19:20:22;;;;;;;39.30;20.27;;;;;;;6.94;93.44;101440.56;8725424;32;20395;-77
2022/02/08 19:25:25;;;;;;;27.25;13.30;;;;;;;6.62;94.27;101429.63;8726583;32;21672;-73
2022/02/08 19:30:29;;;;;;;27.13;13.48;;;;;;;6.54;94.44;101443.34;8746263;32;21283;-76
2022/02/08 19:35:34;;;;;;;38.13;20.35;;;;;;;6.64;94.59;101430.44;8730332;32;21360;-76
2022/02/08 19:40:37;;;;;;;36.75;15.93;;;;;;;6.69;93.26;101430.19;8730875;32;20404;-75
2022/02/08 19:45:43;;;;;;;35.20;15.90;;;;;;;6.78;93.28;101421.75;8724242;32;20471;-75
2022/02/08 19:50:49;;;;;;;39.88;18.95;;;;;;;6.65;93.42;101425.94;8724688;32;21070;-75
2022/02/08 19:56:01;;;;;;;39.25;17.50;;;;;;;6.72;92.80;101425.59;8722373;32;20642;-75
2022/02/08 20:01:08;;;;;;;42.13;20.63;;;;;;;6.83;92.66;101431.28;8723663;32;20407;-75
2022/02/08 20:06:13;;;;;;;35.65;17.55;;;;;;;7.06;91.58;101431.97;8725303;32;20429;-75
2022/02/08 20:11:16;;;;;;;35.63;15.98;;;;;;;6.79;92.28;101437.69;8723465;32;20638;-75
2022/02/08 20:16:20;;;;;;;43.47;21.05;;;;;;;6.94;92.51;101436.13;8722535;32;20188;-75
2022/02/08 20:21:27;;;;;;;41.80;19.50;;;;;;;6.66;93.30;101446.34;8721576;32;20505;-75
2022/02/08 20:26:45;;;;;;;32.80;16.48;;;;;;;6.70;92.13;101445.28;8722444;32;20474;-75
2022/02/08 20:31:49;;;;;;;41.60;21.83;;;;;;;6.71;92.15;101444.34;8722316;32;21068;-75
2022/02/08 20:36:55;;;;;;;36.47;18.15;;;;;;;6.83;91.24;101441.09;8723231;32;20149;-75
2022/02/08 20:42:00;;;;;;;41.25;19.10;;;;;;;7.32;89.35;101436.00;8713947;32;20177;-75
2022/02/08 20:47:12;;;;;;;40.67;17.67;;;;;;;7.27;88.13;101452.28;8723817;32;21706;-76
2022/02/08 20:52:17;;;;;;;36.97;17.85;;;;;;;7.23;88.28;101456.03;8723377;32;20230;-76
2022/02/08 20:57:27;;;;;;;41.95;16.80;;;;;;;7.10;87.87;101454.91;8714073;32;20654;-75
2022/02/08 21:02:36;;;;;;;26.92;14.18;;;;;;;7.42;86.47;101445.28;8714827;32;20456;-76
2022/02/08 21:07:41;;;;;;;36.67;16.70;;;;;;;7.33;86.98;101452.91;8689955;32;20528;-76
2022/02/08 21:12:51;;;;;;;38.60;17.02;;;;;;;7.34;86.99;101457.31;8720338;32;20224;-75
2022/02/08 21:17:54;;;;;;;37.00;17.38;;;;;;;7.56;85.89;101457.09;8720790;32;20168;-76
2022/02/08 21:22:58;;;;;;;32.53;15.82;;;;;;;7.25;87.27;101462.19;8718685;32;20192;-76
2022/02/08 21:28:09;;;;;;;33.05;15.48;;;;;;;7.18;86.95;101444.69;8717422;32;20146;-77
2022/02/08 21:43:16;;;;;;;28.52;15.43;;;;;;;7.18;86.72;101460.75;8734471;32;20265;-76
2022/02/08 21:49:25;;;;;;;32.05;16.25;;;;;;;7.56;85.46;101465.09;8736800;32;20591;-75
2022/02/08 21:54:32;;;;;;;34.47;15.93;;;;;;;7.45;86.07;101473.66;8746268;32;20189;-74
2022/02/08 21:59:36;;;;;;;34.47;16.88;;;;;;;7.47;86.34;101469.97;8750737;32;20558;-75
2022/02/08 22:04:39;;;;;;;29.60;16.02;;;;;;;7.46;86.10;101472.72;8747741;32;20440;-76
2022/02/08 22:09:54;;;;;;;26.13;13.30;;;;;;;7.19;86.55;101470.50;8744773;32;20465;-77
2022/02/08 22:25:47;;;;;;;33.08;16.88;;;;;;;7.03;87.55;101445.47;8741888;32;20404;-73
2022/02/08 22:30:55;;;;;;;31.58;14.20;;;;;;;7.16;86.41;101459.09;8739268;32;20631;-74
2022/02/08 22:36:08;;;;;;;29.15;15.77;;;;;;;7.42;84.70;101464.00;8719508;32;20456;-74
2022/02/08 22:41:19;;;;;;;28.08;14.75;;;;;;;7.42;84.29;101460.47;8722040;32;20455;-75
2022/02/08 22:46:22;;;;;;;25.92;12.02;;;;;;;7.32;84.21;101470.75;8726687;32;20138;-76
2022/02/08 22:51:25;;;;;;;21.52;12.40;;;;;;;7.42;83.43;101468.47;8699276;32;20924;-75
2022/02/08 22:56:30;;;;;;;18.60;10.15;;;;;;;7.17;82.95;101477.72;8725952;32;20237;-76
2022/02/08 23:01:33;;;;;;;15.90;7.07;;;;;;;7.42;82.45;101481.84;8726548;32;20185;-76
2022/02/08 23:06:36;;;;;;;17.98;9.48;;;;;;;7.43;81.96;101480.91;8725861;32;20602;-76
2022/02/08 23:38:33;;;;;;;19.70;9.82;;;;;;;7.50;80.42;101474.31;8734780;32;20246;-75
2022/02/08 23:43:38;;;;;;;15.10;9.25;;;;;;;7.32;80.45;101470.75;8723680;32;21493;-75
2022/02/08 23:48:50;;;;;;;18.23;9.52;;;;;;;7.37;80.67;101471.38;8720328;32;20424;-75
2022/02/08 23:53:59;;;;;;;14.25;8.95;;;;;;;7.43;80.62;101459.50;8723616;32;20410;-75
2022/02/08 23:59:07;;;;;;;19.75;9.77;;;;;;;7.25;80.97;101450.63;8723481;32;20195;-75
